Time;durP1;ratioP1;P1;durP2;ratioP2;P2;SDS_P1;SDS_P2;PMS_P1;PMS_P2;Temp;Humidity;BMP_temperature;BMP_pressure;BME280_temperature;BME280_humidity;BME280_pressure;Samples;Min_cycle;Max_cycle;Signal;HPM_P1;HPM_P2
2022/07/14 00:01:05;;;;;;;;;11.25;11.25;;;;;29.95;28.73;101143.50;5053855;28;46950;-87
2022/07/14 00:03:30;;;;;;;;;11.75;11.50;;;;;30.00;28.36;101159.88;5068049;28;45960;-87
2022/07/14 00:05:55;;;;;;;;;13.75;13.50;;;;;30.01;29.09;101158.81;5056527;28;48172;-85
2022/07/14 00:08:21;;;;;;;;;10.75;10.50;;;;;29.99;29.09;101169.03;5070657;28;47385;-86
2022/07/14 00:10:46;;;;;;;;;9.75;9.75;;;;;29.93;29.09;101164.50;5055653;28;45733;-85
2022/07/14 00:13:12;;;;;;;;;12.00;11.00;;;;;29.88;29.13;101155.38;5062412;28;45907;-85
2022/07/14 00:15:37;;;;;;;;;10.75;10.00;;;;;29.82;29.14;101157.09;5071485;28;45717;-87
2022/07/14 00:18:03;;;;;;;;;10.00;9.25;;;;;29.70;28.85;101136.44;5074048;28;45670;-86
2022/07/14 00:20:28;;;;;;;;;10.75;9.75;;;;;29.71;29.14;101138.91;5072167;28;46150;-87
2022/07/14 00:22:57;;;;;;;;;10.75;10.75;;;;;29.62;29.28;101126.75;5055453;28;45666;-87
2022/07/14 00:25:26;;;;;;;;;12.25;12.25;;;;;29.63;29.80;101116.78;5055833;28;47431;-88
2022/07/14 00:27:53;;;;;;;;;14.50;14.00;;;;;29.65;29.99;101118.19;5057369;28;48092;-87
2022/07/14 00:30:18;;;;;;;;;13.75;13.50;;;;;29.60;30.07;101110.75;5068859;28;45863;-87
2022/07/14 00:32:44;;;;;;;;;16.25;15.25;;;;;29.54;30.33;101105.41;5058967;28;46097;-86
2022/07/14 00:35:09;;;;;;;;;15.50;14.00;;;;;29.42;30.56;101089.09;5080389;28;45680;-87
2022/07/14 00:37:35;;;;;;;;;18.50;16.50;;;;;29.52;30.15;101110.22;5075447;28;46177;-87
2022/07/14 00:40:04;;;;;;;;;20.50;19.25;;;;;29.47;30.74;101101.94;5076991;28;45837;-87
2022/07/14 00:42:32;;;;;;;;;25.75;23.00;;;;;29.47;30.47;101108.19;5067948;28;46027;-87
2022/07/14 00:45:00;;;;;;;;;19.50;17.75;;;;;29.45;31.06;101112.97;5079427;28;47360;-88
2022/07/14 00:47:26;;;;;;;;;27.50;23.75;;;;;29.39;31.43;101104.91;5061583;28;48280;-87
2022/07/14 00:49:53;;;;;;;;;28.25;26.25;;;;;29.33;31.14;101103.91;5062781;28;45763;-86
2022/07/14 00:52:19;;;;;;;;;32.25;30.00;;;;;29.24;31.67;101099.81;5064290;28;45914;-87
2022/07/14 00:54:44;;;;;;;;;25.00;23.00;;;;;29.23;31.74;101111.66;5080188;28;48275;-88
2022/07/14 00:57:09;;;;;;;;;28.00;24.25;;;;;29.19;31.49;101118.53;5079930;28;47141;-87
2022/07/14 00:59:35;;;;;;;;;27.75;25.75;;;;;29.12;31.77;101113.19;5064127;28;45804;-87
2022/07/14 01:02:00;;;;;;;;;27.25;26.50;;;;;29.02;32.38;101118.25;5082740;28;45612;-87
2022/07/14 01:04:26;;;;;;;;;27.25;25.25;;;;;29.00;32.36;101131.09;5080232;28;47488;-89
2022/07/14 01:06:51;;;;;;;;;31.25;26.75;;;;;28.92;32.48;101134.06;5069669;28;46923;-88
2022/07/14 01:09:17;;;;;;;;;28.50;25.00;;;;;28.81;32.48;101129.38;5072521;28;45641;-87
2022/07/14 01:11:42;;;;;;;;;28.50;26.00;;;;;28.73;33.17;101127.72;5061486;28;45820;-89
2022/07/14 01:14:07;;;;;;;;;26.25;24.75;;;;;28.61;32.60;101134.81;5068732;28;47462;-89
2022/07/14 01:16:33;;;;;;;;;17.25;17.25;;;;;28.59;33.23;101134.22;5073593;28;46081;-89
2022/07/14 01:18:58;;;;;;;;;20.25;19.50;;;;;28.51;32.94;101147.91;5062426;28;45769;-89
2022/07/14 01:21:25;;;;;;;;;16.50;15.00;;;;;28.38;32.76;101137.19;5082944;28;45705;-86
2022/07/14 01:23:50;;;;;;;;;14.00;13.25;;;;;28.30;33.45;101135.56;5073483;28;47709;-89
2022/07/14 01:26:16;;;;;;;;;15.50;14.50;;;;;28.24;32.97;101152.56;5066017;28;47197;-88
2022/07/14 01:28:42;;;;;;;;;15.00;12.75;;;;;28.08;33.43;101152.16;5081329;28;45543;-88
2022/07/14 01:31:07;;;;;;;;;11.50;10.50;;;;;27.84;33.60;101143.72;5071073;28;45721;-88
2022/07/14 01:33:33;;;;;;;;;11.75;11.25;;;;;27.63;34.07;101148.50;5064347;28;47646;-87
2022/07/14 01:35:58;;;;;;;;;11.25;10.50;;;;;27.58;33.44;101154.50;5066282;28;47240;-87
2022/07/14 01:38:23;;;;;;;;;11.75;11.00;;;;;27.51;33.57;101162.56;5059050;28;46297;-89
2022/07/14 01:40:49;;;;;;;;;6.50;5.75;;;;;27.47;34.00;101157.78;5080495;28;46769;-87
2022/07/14 01:43:17;;;;;;;;;9.00;9.00;;;;;27.37;34.72;101155.47;5063971;28;47656;-89
2022/07/14 01:45:43;;;;;;;;;9.75;8.50;;;;;27.24;34.58;101149.25;5059127;28;46528;-87
2022/07/14 01:48:08;;;;;;;;;9.25;9.25;;;;;27.25;34.30;101165.19;5076963;28;45975;-87
2022/07/14 01:50:33;;;;;;;;;8.00;8.00;;;;;27.18;34.18;101153.59;5075774;27;45749;-86
2022/07/14 01:52:59;;;;;;;;;8.00;7.25;;;;;27.16;34.34;101152.94;5072451;28;45976;-87
2022/07/14 01:55:24;;;;;;;;;9.00;9.00;;;;;27.05;34.87;101150.84;5082962;28;45733;-84
2022/07/14 01:57:50;;;;;;;;;9.75;9.75;;;;;27.02;35.18;101148.59;5089857;28;45712;-88
2022/07/14 02:00:16;;;;;;;;;11.00;9.00;;;;;26.92;34.99;101135.53;5065247;28;45728;-87
2022/07/14 02:02:42;;;;;;;;;6.50;5.00;;;;;26.86;34.93;101130.94;5075612;28;46799;-87
2022/07/14 02:05:09;;;;;;;;;10.00;9.00;;;;;26.85;34.54;101128.44;5076247;28;46060;-88
2022/07/14 02:07:34;;;;;;;;;7.25;6.75;;;;;26.77;35.26;101126.78;5056211;27;45843;-88
2022/07/14 02:12:45;;;;;;;;;9.25;7.75;;;;;26.66;35.44;101136.25;5075279;28;46264;-88
2022/07/14 02:15:10;;;;;;;;;0.00;0.00;;;;;26.51;35.35;101119.41;5058153;28;46090;-85
2022/07/14 02:17:36;;;;;;;;;8.00;7.00;;;;;26.54;35.53;101124.41;5080521;28;45661;-86
2022/07/14 02:20:02;;;;;;;;;7.00;5.75;;;;;26.52;35.83;101122.94;5057323;28;45533;-86
2022/07/14 02:22:28;;;;;;;;;7.50;7.00;;;;;26.54;36.09;101119.03;5072163;28;45698;-87
2022/07/14 02:24:53;;;;;;;;;7.50;7.50;;;;;26.54;35.56;101118.19;5056480;28;48262;-86
2022/07/14 02:27:19;;;;;;;;;8.00;7.50;;;;;26.50;35.66;101111.56;5056636;28;45712;-86
2022/07/14 02:29:44;;;;;;;;;5.75;5.00;;;;;26.58;35.72;101120.28;5072383;27;45651;-84
2022/07/14 02:32:10;;;;;;;;;6.50;6.50;;;;;26.58;35.87;101114.06;5053212;28;48484;-84
2022/07/14 02:34:35;;;;;;;;;6.00;6.00;;;;;26.52;35.61;101104.94;5053249;28;48258;-86
2022/07/14 02:37:01;;;;;;;;;6.00;5.25;;;;;26.48;35.85;101113.63;5073634;27;45806;-87
2022/07/14 02:39:26;;;;;;;;;6.00;5.50;;;;;26.44;35.92;101115.06;5057671;28;45609;-87
2022/07/14 02:41:53;;;;;;;;;6.00;5.75;;;;;26.34;36.34;101102.00;5075503;28;45773;-85
2022/07/14 02:44:18;;;;;;;;;5.00;5.00;;;;;26.31;36.45;101115.81;5076035;27;45608;-89
2022/07/14 02:46:44;;;;;;;;;6.00;6.00;;;;;26.27;36.33;101103.81;5053130;28;45973;-87
2022/07/14 02:49:10;;;;;;;;;7.00;6.00;;;;;26.26;36.63;101112.91;5070709;28;46228;-85
2022/07/14 02:51:35;;;;;;;;;5.25;4.75;;;;;26.19;36.65;101101.25;5074383;28;46936;-88
2022/07/14 02:54:01;;;;;;;;;8.00;7.50;;;;;26.17;36.95;101101.47;5056828;28;48158;-88
2022/07/14 02:56:26;;;;;;;;;6.25;6.00;;;;;26.16;36.89;101104.34;5056313;28;46330;-87
2022/07/14 02:58:51;;;;;;;;;4.00;4.00;;;;;26.15;37.28;101100.81;5060193;28;45998;-85
2022/07/14 03:01:17;;;;;;;;;7.00;6.00;;;;;26.11;37.45;101099.56;5056903;28;48308;-86
2022/07/14 03:03:43;;;;;;;;;8.75;6.25;;;;;26.08;36.80;101105.31;5090008;27;48214;-87
2022/07/14 03:06:17;;;;;;;;;4.00;4.00;;;;;26.05;37.78;101107.59;5061657;28;45785;-86
2022/07/14 03:08:42;;;;;;;;;7.00;7.00;;;;;25.91;38.34;101091.38;5054747;28;45960;-87
2022/07/14 03:11:08;;;;;;;;;8.00;7.25;;;;;25.92;37.82;101090.34;5066789;28;46702;-87
2022/07/14 03:13:35;;;;;;;;;6.25;6.00;;;;;25.84;38.25;101098.59;5075183;28;46334;-87
2022/07/14 03:16:02;;;;;;;;;8.75;8.00;;;;;25.74;38.29;101091.91;5055388;28;45772;-87
2022/07/14 03:18:28;;;;;;;;;8.00;7.25;;;;;25.73;38.45;101100.97;5054021;28;45781;-86
2022/07/14 03:20:54;;;;;;;;;9.00;8.00;;;;;25.63;38.96;101095.97;5071698;28;45711;-86
2022/07/14 03:23:21;;;;;;;;;10.25;8.00;;;;;25.63;39.67;101104.00;5063890;28;46078;-86
2022/07/14 03:25:46;;;;;;;;;12.00;10.50;;;;;25.50;39.70;101096.66;5056806;28;46207;-86
2022/07/14 03:28:13;;;;;;;;;11.75;11.25;;;;;25.49;40.13;101099.50;5074279;28;45699;-87
2022/07/14 03:30:39;;;;;;;;;9.25;8.25;;;;;25.45;39.81;101093.72;5072738;27;47878;-87
2022/07/14 03:33:04;;;;;;;;;9.25;8.25;;;;;25.44;40.08;101102.78;5071077;28;45710;-87
2022/07/14 03:35:29;;;;;;;;;15.75;13.75;;;;;25.39;40.29;101097.16;5074341;28;45807;-87
2022/07/14 03:37:55;;;;;;;;;15.00;14.00;;;;;25.37;40.73;101093.84;5054956;28;45681;-88
2022/07/14 03:40:20;;;;;;;;;12.75;11.50;;;;;25.34;40.69;101091.56;5055614;28;47165;-88
2022/07/14 03:42:46;;;;;;;;;11.00;10.50;;;;;25.33;40.83;101081.00;5055383;28;47199;-88
2022/07/14 03:45:12;;;;;;;;;8.50;8.50;;;;;25.40;40.75;101096.16;5073243;28;45800;-87
2022/07/14 03:47:37;;;;;;;;;10.00;8.75;;;;;25.40;40.66;101098.00;5055108;28;45790;-87
2022/07/14 03:50:03;;;;;;;;;9.75;9.00;;;;;25.34;40.77;101098.78;5054798;28;47476;-88
2022/07/14 03:52:28;;;;;;;;;9.50;7.50;;;;;25.24;40.99;101091.06;5055337;28;47223;-88
2022/07/14 03:54:54;;;;;;;;;8.25;8.00;;;;;25.19;41.39;101092.66;5074225;28;45723;-88
2022/07/14 03:57:19;;;;;;;;;9.50;8.25;;;;;25.14;41.57;101095.91;5054406;28;45611;-87
2022/07/14 03:59:44;;;;;;;;;10.00;9.00;;;;;25.13;41.45;101099.63;5053919;28;48891;-89
2022/07/14 04:02:11;;;;;;;;;9.00;7.50;;;;;25.12;41.34;101102.47;5058166;28;47427;-88
2022/07/14 04:04:38;;;;;;;;;7.00;6.50;;;;;25.10;41.81;101096.50;5060856;28;45824;-90
2022/07/14 04:07:04;;;;;;;;;8.00;7.25;;;;;25.00;41.93;101084.22;5080726;28;45798;-89
2022/07/14 04:09:29;;;;;;;;;10.75;9.25;;;;;25.03;42.03;101091.06;5060979;28;48575;-88
2022/07/14 04:11:55;;;;;;;;;8.00;8.00;;;;;24.99;41.89;101095.97;5080726;28;47461;-91
2022/07/14 04:14:21;;;;;;;;;10.00;9.25;;;;;24.99;42.27;101104.00;5062657;28;45876;-90
2022/07/14 04:16:46;;;;;;;;;6.50;6.50;;;;;24.92;42.42;101099.63;5086995;28;46283;-89
2022/07/14 04:19:12;;;;;;;;;9.00;8.00;;;;;24.77;42.45;101078.19;5069616;28;47296;-88
2022/07/14 04:21:37;;;;;;;;;9.00;8.00;;;;;24.86;42.57;101108.38;5100836;27;47218;-89
2022/07/14 04:24:03;;;;;;;;;9.00;8.00;;;;;24.80;42.91;101103.78;5067882;28;45839;-87
2022/07/14 04:26:29;;;;;;;;;11.00;10.00;;;;;24.77;42.55;101098.81;5082724;28;45890;-87
2022/07/14 04:28:55;;;;;;;;;8.25;8.00;;;;;24.79;42.92;101096.75;5057304;28;48425;-88
2022/07/14 04:31:21;;;;;;;;;10.00;8.25;;;;;24.75;42.59;101090.94;5060512;28;47536;-88
2022/07/14 04:33:46;;;;;;;;;10.50;9.25;;;;;24.81;43.08;101111.63;5060986;28;45617;-87
2022/07/14 04:36:12;;;;;;;;;8.75;8.00;;;;;24.76;43.21;101114.06;5079556;27;45698;-85
2022/07/14 04:38:37;;;;;;;;;9.75;9.50;;;;;24.72;43.58;101099.38;5062526;28;48763;-86
2022/07/14 04:41:03;;;;;;;;;9.50;8.00;;;;;24.69;43.77;101107.78;5060440;28;47284;-87
2022/07/14 04:43:28;;;;;;;;;9.00;9.00;;;;;24.67;43.38;101105.28;5080153;28;45625;-86
2022/07/14 04:45:54;;;;;;;;;8.00;7.75;;;;;24.68;43.60;101108.78;5069423;28;45915;-87
2022/07/14 04:48:19;;;;;;;;;9.00;8.75;;;;;24.70;43.95;101108.59;5064150;28;47489;-87
2022/07/14 04:53:29;;;;;;;;;8.25;7.00;;;;;24.73;43.94;101118.94;5084889;28;45746;-88
2022/07/14 04:55:54;;;;;;;;;1.25;0.00;;;;;24.71;43.93;101121.00;5083669;27;45714;-86
2022/07/14 04:58:20;;;;;;;;;8.25;7.75;;;;;24.64;43.85;101118.22;5066023;28;47435;-87
2022/07/14 05:00:46;;;;;;;;;7.50;6.75;;;;;24.58;44.03;101121.66;5082352;28;46606;-86
2022/07/14 05:03:11;;;;;;;;;9.00;7.25;;;;;24.58;44.46;101118.97;5066284;28;46049;-87
2022/07/14 05:05:36;;;;;;;;;9.00;9.00;;;;;24.57;44.43;101114.63;5070971;28;45717;-87
2022/07/14 05:08:02;;;;;;;;;7.00;7.00;;;;;24.54;44.62;101105.13;5081081;28;48520;-88
2022/07/14 05:10:27;;;;;;;;;6.50;6.50;;;;;24.57;44.49;101110.09;5077740;27;45656;-88
2022/07/14 05:12:53;;;;;;;;;7.00;7.00;;;;;24.50;44.71;101108.38;5063409;28;45806;-88
2022/07/14 05:15:18;;;;;;;;;9.50;8.00;;;;;24.57;44.50;101120.81;5078901;28;45663;-88
2022/07/14 05:17:44;;;;;;;;;9.25;8.00;;;;;24.47;44.68;101111.41;5080364;28;45745;-89
2022/07/14 05:20:10;;;;;;;;;9.00;8.25;;;;;24.54;44.44;101120.38;5063496;28;47143;-88
2022/07/14 05:22:41;;;;;;;;;10.00;9.00;;;;;24.51;45.05;101124.25;5062891;28;45696;-87
2022/07/14 05:25:10;;;;;;;;;7.75;6.00;;;;;24.42;44.84;101100.44;5081351;28;46345;-88
2022/07/14 05:27:37;;;;;;;;;8.00;7.00;;;;;24.47;44.73;101112.25;5063846;28;47654;-88
2022/07/14 05:30:04;;;;;;;;;8.00;8.00;;;;;24.44;44.88;101115.31;5062663;28;46999;-86
2022/07/14 05:32:30;;;;;;;;;9.00;7.75;;;;;24.44;45.02;101125.19;5062910;28;45806;-90
2022/07/14 05:34:56;;;;;;;;;8.75;7.50;;;;;24.43;45.08;101124.38;5084682;27;45549;-88
2022/07/14 05:37:22;;;;;;;;;7.50;7.50;;;;;24.43;45.16;101118.19;5096922;27;48278;-87
2022/07/14 05:39:47;;;;;;;;;7.00;7.00;;;;;24.31;44.80;101100.91;5081380;28;46666;-87
2022/07/14 05:42:31;;;;;;;;;8.25;8.00;;;;;24.32;45.11;101105.25;5063461;28;45838;-87
2022/07/14 05:45:38;;;;;;;;;9.25;9.00;;;;;24.42;45.31;101116.50;5064529;28;45958;-88
2022/07/14 05:51:40;;;;;;;;;8.00;8.00;;;;;24.35;45.51;101139.69;4979331;28;46124;-90
2022/07/14 06:01:01;;;;;;;;;8.00;8.00;;;;;24.28;46.58;101139.63;5174491;22;45755;-88
2022/07/14 06:03:27;;;;;;;;;10.25;8.75;;;;;24.25;46.04;101116.72;4982945;28;47329;-89
2022/07/14 06:12:37;;;;;;;;;10.00;9.25;;;;;24.28;45.83;101123.56;4991539;28;46783;-88
2022/07/14 06:15:05;;;;;;;;;10.25;10.00;;;;;24.30;46.07;101118.81;4992803;28;48193;-88
2022/07/14 06:17:36;;;;;;;;;13.00;10.00;;;;;24.49;46.41;101142.38;4991686;28;46091;-88
2022/07/14 06:20:06;;;;;;;;;12.50;10.75;;;;;24.47;45.76;101133.69;4987508;28;45888;-89
2022/07/14 06:22:35;;;;;;;;;9.25;9.25;;;;;24.52;45.92;101139.31;4978177;28;48426;-89
2022/07/14 06:25:01;;;;;;;;;8.00;8.00;;;;;24.54;46.31;101133.78;4974111;28;47088;-88
2022/07/14 06:27:27;;;;;;;;;9.75;9.75;;;;;24.58;45.78;101143.09;4959586;28;46069;-89
2022/07/14 06:29:52;;;;;;;;;12.25;11.25;;;;;24.60;45.93;101152.63;4980892;28;45916;-87
2022/07/14 06:32:17;;;;;;;;;11.50;10.50;;;;;24.64;46.09;101156.59;4967466;28;47453;-87
2022/07/14 06:34:43;;;;;;;;;11.50;10.00;;;;;24.52;46.12;101117.03;4987601;28;45806;-86
2022/07/14 06:37:08;;;;;;;;;8.50;8.00;;;;;24.59;45.64;101148.28;5020612;27;46051;-88
2022/07/14 06:39:36;;;;;;;;;12.25;10.00;;;;;24.60;46.49;101151.78;5080902;27;45799;-89
2022/07/14 06:42:03;;;;;;;;;12.00;11.00;;;;;24.53;46.13;101140.97;5063400;27;47910;-79
2022/07/14 06:44:29;;;;;;;;;9.00;9.00;;;;;24.58;45.96;101145.78;5065142;28;46055;-78
2022/07/14 06:46:58;;;;;;;;;10.75;10.00;;;;;24.54;46.20;101139.13;5074015;27;45579;-76
2022/07/14 06:49:29;;;;;;;;;10.25;9.00;;;;;24.58;46.49;101143.09;5071370;27;45740;-75
2022/07/14 06:51:54;;;;;;;;;10.75;10.00;;;;;24.57;45.77;101152.97;5077003;27;45766;-76
2022/07/14 06:54:19;;;;;;;;;10.00;9.50;;;;;24.53;46.25;101149.03;5065096;27;46323;-75
2022/07/14 06:56:45;;;;;;;;;9.75;9.75;;;;;24.56;46.00;101155.88;5072569;28;45754;-77
2022/07/14 06:59:13;;;;;;;;;10.75;8.75;;;;;24.48;46.32;101143.41;5081924;27;45864;-75
2022/07/14 07:01:39;;;;;;;;;11.50;10.50;;;;;24.53;46.48;101143.66;5071321;27;46014;-76
2022/07/14 07:04:04;;;;;;;;;13.25;11.75;;;;;24.55;46.55;101141.63;5072287;27;45823;-74
2022/07/14 07:06:45;;;;;;;;;9.50;9.00;;;;;24.63;46.37;101146.88;5072405;27;45742;-75
2022/07/14 07:09:12;;;;;;;;;11.50;10.50;;;;;24.67;46.32;101148.16;5069286;27;45835;-75
2022/07/14 07:11:38;;;;;;;;;9.00;8.00;;;;;24.74;46.31;101156.28;5079947;27;46117;-74
2022/07/14 07:14:04;;;;;;;;;12.75;11.00;;;;;24.77;46.43;101142.53;5079433;27;45731;-74
2022/07/14 07:16:30;;;;;;;;;12.75;11.00;;;;;24.83;46.09;101152.47;5074277;27;45759;-76
2022/07/14 07:18:55;;;;;;;;;11.75;10.00;;;;;24.79;45.94;101145.00;5072813;27;45801;-77
2022/07/14 07:21:21;;;;;;;;;12.00;12.00;;;;;24.83;46.49;101146.31;5080126;27;46547;-76
2022/07/14 07:23:54;;;;;;;;;11.50;10.75;;;;;24.82;46.53;101145.47;5053630;28;46409;-78
2022/07/14 07:26:22;;;;;;;;;10.00;10.00;;;;;24.83;46.31;101149.78;5059915;27;45901;-78
2022/07/14 07:28:48;;;;;;;;;11.00;11.00;;;;;24.85;46.36;101147.75;5090760;27;45644;-78
2022/07/14 07:31:13;;;;;;;;;10.50;10.25;;;;;24.89;45.86;101148.22;5079022;27;46418;-77
2022/07/14 07:33:39;;;;;;;;;12.50;11.50;;;;;24.84;46.37;101138.06;5072454;27;45617;-77
2022/07/14 07:36:05;;;;;;;;;10.75;10.25;;;;;24.92;46.22;101148.72;5079276;27;45592;-77
2022/07/14 07:38:31;;;;;;;;;9.00;9.00;;;;;24.92;46.31;101129.94;5076901;27;45686;-76
2022/07/14 07:40:56;;;;;;;;;12.50;11.25;;;;;25.04;46.21;101138.31;5071656;27;45639;-78
2022/07/14 07:43:21;;;;;;;;;12.00;12.00;;;;;25.10;46.18;101139.41;5079771;27;46247;-79
2022/07/14 07:45:49;;;;;;;;;9.00;9.00;;;;;25.13;46.36;101131.81;5083201;27;45713;-77
2022/07/14 07:48:14;;;;;;;;;12.00;11.00;;;;;25.17;46.24;101125.03;5072068;27;45782;-77
2022/07/14 07:50:44;;;;;;;;;12.25;10.75;;;;;25.26;45.94;101136.47;5053853;28;46037;-77
2022/07/14 07:53:10;;;;;;;;;11.00;10.00;;;;;25.28;45.62;101132.56;5042077;28;46279;-79
2022/07/14 07:55:36;;;;;;;;;11.00;9.75;;;;;25.36;45.67;101128.94;5070658;27;47119;-78
2022/07/14 07:58:02;;;;;;;;;11.00;11.00;;;;;25.35;45.57;101133.47;5071457;27;46161;-78
2022/07/14 08:00:28;;;;;;;;;12.75;12.00;;;;;25.35;45.33;101130.78;5072017;27;45708;-78
2022/07/14 08:02:54;;;;;;;;;12.00;11.00;;;;;25.37;45.39;101139.44;5074240;27;46757;-79
2022/07/14 08:05:22;;;;;;;;;11.25;10.50;;;;;25.41;45.25;101143.44;5070784;27;45855;-78
2022/07/14 08:07:48;;;;;;;;;10.50;10.00;;;;;25.35;45.21;101129.94;5077347;27;45656;-78
2022/07/14 08:10:14;;;;;;;;;10.25;10.00;;;;;25.47;45.49;101149.88;5069820;27;45890;-78
2022/07/14 08:12:40;;;;;;;;;11.00;10.00;;;;;25.43;45.06;101133.31;5069875;27;46580;-77
2022/07/14 08:15:06;;;;;;;;;11.00;10.75;;;;;25.50;45.17;101139.59;5072264;27;45771;-77
2022/07/14 08:17:32;;;;;;;;;11.25;10.00;;;;;25.45;44.79;101119.72;5067745;27;45771;-78
2022/07/14 08:19:57;;;;;;;;;10.00;9.00;;;;;25.49;44.84;101139.75;5071259;27;45732;-78
2022/07/14 08:22:27;;;;;;;;;10.00;9.00;;;;;25.49;44.76;101123.66;5069539;27;45628;-78
2022/07/14 08:24:54;;;;;;;;;8.00;8.00;;;;;25.53;44.78;101126.81;5066238;27;45782;-77
2022/07/14 08:27:19;;;;;;;;;10.00;9.75;;;;;25.53;44.49;101124.97;5068060;27;45730;-77
2022/07/14 08:29:44;;;;;;;;;9.50;9.50;;;;;25.53;44.60;101111.53;5067987;27;46674;-79
2022/07/14 08:32:10;;;;;;;;;9.00;8.25;;;;;25.68;44.63;101116.84;5069655;27;46300;-78
2022/07/14 08:34:36;;;;;;;;;11.75;8.75;;;;;25.73;44.31;101130.50;5070140;27;46051;-77
2022/07/14 08:37:01;;;;;;;;;11.00;9.75;;;;;25.75;43.78;101115.03;5069540;27;46209;-79
2022/07/14 08:39:27;;;;;;;;;9.00;9.00;;;;;25.78;43.98;101128.91;5068390;27;46300;-78
2022/07/14 08:41:56;;;;;;;;;9.00;9.00;;;;;25.81;43.59;101131.19;5067471;27;45740;-78
2022/07/14 08:44:23;;;;;;;;;11.50;10.00;;;;;25.85;43.79;101128.94;5069964;27;45562;-78
2022/07/14 08:46:50;;;;;;;;;11.00;10.00;;;;;25.82;43.82;101121.28;5067956;27;45727;-85
2022/07/14 08:49:16;;;;;;;;;9.00;9.00;;;;;25.81;43.94;101114.22;5061356;27;47485;-86
2022/07/14 08:51:43;;;;;;;;;8.00;6.50;;;;;25.88;43.37;101129.38;5064014;27;47338;-84
2022/07/14 08:54:09;;;;;;;;;8.00;7.50;;;;;25.88;42.67;101117.81;5086711;27;45869;-82
2022/07/14 08:56:36;;;;;;;;;10.00;8.25;;;;;25.94;42.52;101129.63;5060400;27;45978;-82
2022/07/14 08:59:01;;;;;;;;;7.00;6.75;;;;;25.92;42.62;101114.53;5079253;27;45842;-86
2022/07/14 09:01:27;;;;;;;;;7.50;7.50;;;;;25.92;42.57;101114.53;5074210;27;47261;-87
2022/07/14 09:03:54;;;;;;;;;8.00;8.00;;;;;25.98;42.38;101125.50;5060339;28;45647;-85
2022/07/14 09:06:44;;;;;;;;;9.00;9.00;;;;;26.01;41.79;101125.13;5057659;28;45956;-85
2022/07/14 09:09:09;;;;;;;;;8.50;8.50;;;;;25.99;42.11;101129.84;5054646;28;46483;-85
2022/07/14 09:11:35;;;;;;;;;11.50;11.50;;;;;26.01;42.19;101127.81;5078125;27;45648;-84
2022/07/14 09:14:10;;;;;;;;;13.00;13.00;;;;;26.06;42.11;101131.56;5079952;27;45717;-85
2022/07/14 09:16:36;;;;;;;;;10.00;10.00;;;;;26.06;41.55;101111.94;5081338;27;45604;-89
2022/07/14 09:19:03;;;;;;;;;12.00;12.00;;;;;26.07;41.87;101106.38;5077740;27;46750;-81
2022/07/14 09:21:29;;;;;;;;;10.50;10.00;;;;;26.16;41.40;101117.78;5080346;27;46019;-85
2022/07/14 09:23:54;;;;;;;;;9.50;9.00;;;;;26.24;41.10;101112.25;5079965;27;46007;-84
2022/07/14 09:26:21;;;;;;;;;7.50;7.00;;;;;26.27;40.62;101106.50;5077093;27;45844;-86
2022/07/14 09:28:49;;;;;;;;;8.75;7.25;;;;;26.26;40.68;101107.53;5056203;28;48484;-83
2022/07/14 09:31:22;;;;;;;;;8.00;7.00;;;;;26.30;40.65;101103.41;5074298;28;45837;-85
2022/07/14 09:33:50;;;;;;;;;7.75;7.00;;;;;26.25;40.13;101089.75;5083407;27;45732;-83
2022/07/14 09:36:29;;;;;;;;;7.00;7.00;;;;;26.37;40.33;101116.88;5073573;27;45979;-84
2022/07/14 09:39:12;;;;;;;;;8.00;8.00;;;;;26.43;40.05;101124.97;5073148;27;46858;-87
2022/07/14 09:41:55;;;;;;;;;7.75;7.50;;;;;26.48;39.84;101108.25;5062656;28;46722;-85
2022/07/14 09:44:22;;;;;;;;;7.75;7.25;;;;;26.50;39.55;101107.03;5070395;28;46291;-80
2022/07/14 09:46:52;;;;;;;;;6.25;6.25;;;;;26.61;39.48;101109.09;5073095;27;45637;-83
2022/07/14 09:49:24;;;;;;;;;7.00;6.75;;;;;26.67;39.28;101118.22;5078392;27;46000;-79
2022/07/14 09:52:05;;;;;;;;;8.50;8.50;;;;;26.73;38.86;101122.81;5083464;27;46020;-84
2022/07/14 09:54:39;;;;;;;;;8.00;7.50;;;;;26.80;39.30;101120.97;5077977;27;45785;-83
2022/07/14 09:57:21;;;;;;;;;8.50;7.50;;;;;26.85;39.21;101109.59;5058309;28;45611;-83
2022/07/14 09:59:47;;;;;;;;;9.50;9.25;;;;;26.91;39.22;101136.56;5076781;28;46749;-82
2022/07/14 10:02:17;;;;;;;;;7.50;7.50;;;;;26.92;39.15;101115.88;5058314;28;47889;-85
2022/07/14 10:04:44;;;;;;;;;9.00;8.25;;;;;26.98;38.24;101115.91;5076666;28;45667;-80
2022/07/14 10:07:11;;;;;;;;;7.50;7.50;;;;;27.00;38.56;101110.28;5076727;28;45586;-82
2022/07/14 10:09:38;;;;;;;;;10.00;10.00;;;;;27.02;38.66;101108.22;5076826;28;46582;-86
2022/07/14 10:12:05;;;;;;;;;8.50;8.50;;;;;27.10;38.73;101116.09;5076414;28;46300;-88
2022/07/14 10:14:31;;;;;;;;;9.25;7.75;;;;;27.07;38.57;101103.06;5076225;28;45740;-82
2022/07/14 10:16:58;;;;;;;;;9.75;9.00;;;;;27.14;38.01;101110.13;5076081;28;45543;-83
2022/07/14 10:19:25;;;;;;;;;10.50;8.75;;;;;27.19;38.09;101109.50;5076037;28;45910;-80
2022/07/14 10:21:55;;;;;;;;;9.00;8.00;;;;;27.31;38.26;101110.56;5076010;28;46440;-82
2022/07/14 10:24:22;;;;;;;;;7.25;7.25;;;;;27.31;38.32;101098.97;5076263;28;45773;-82
2022/07/14 10:26:48;;;;;;;;;7.50;7.50;;;;;27.39;38.21;101107.66;5075867;28;45690;-81
2022/07/14 10:29:14;;;;;;;;;8.00;8.00;;;;;27.45;38.02;101108.69;5057227;28;48693;-84
2022/07/14 10:32:12;;;;;;;;;7.00;6.25;;;;;27.55;37.97;101117.22;5075824;28;46612;-83
2022/07/14 10:34:45;;;;;;;;;7.00;6.00;;;;;27.49;37.51;101108.06;5074594;28;45616;-83
2022/07/14 10:37:26;;;;;;;;;7.50;7.00;;;;;27.64;37.87;101107.06;5075870;28;45522;-82
2022/07/14 10:39:55;;;;;;;;;8.00;8.00;;;;;27.70;37.13;101119.66;5057420;28;47410;-82
2022/07/14 10:42:30;;;;;;;;;6.00;6.00;;;;;27.71;37.02;101097.09;5075368;28;46373;-83
2022/07/14 10:44:56;;;;;;;;;5.25;5.25;;;;;27.76;35.68;101100.00;5075379;28;45767;-84
2022/07/14 10:47:24;;;;;;;;;4.75;4.50;;;;;27.80;36.13;101107.44;5075495;28;45688;-79
2022/07/14 10:50:09;;;;;;;;;5.25;5.00;;;;;27.89;35.83;101111.59;5056859;28;47579;-78
2022/07/14 10:52:37;;;;;;;;;6.00;5.50;;;;;27.95;35.97;101101.84;5075181;28;45912;-78
2022/07/14 10:55:13;;;;;;;;;4.00;4.00;;;;;28.03;35.29;101112.38;5075073;28;45508;-81
2022/07/14 10:57:39;;;;;;;;;5.75;5.00;;;;;28.06;35.10;101124.63;5075567;28;45470;-78
2022/07/14 11:00:06;;;;;;;;;4.75;4.00;;;;;28.01;35.05;101100.16;5074548;28;45760;-78
2022/07/14 11:02:33;;;;;;;;;4.00;4.00;;;;;28.11;34.88;101109.47;5074743;28;46422;-79
2022/07/14 11:05:11;;;;;;;;;4.25;4.25;;;;;28.15;34.80;101113.41;5056582;28;45586;-80
2022/07/14 11:08:09;;;;;;;;;5.00;5.00;;;;;28.17;34.94;101110.53;5075382;28;45830;-79
2022/07/14 11:10:35;;;;;;;;;3.25;3.25;;;;;28.20;34.29;101119.00;4992111;28;45650;-81
2022/07/14 11:13:03;;;;;;;;;4.25;4.00;;;;;28.27;34.66;101106.34;4992732;28;46129;-80
2022/07/14 11:15:53;;;;;;;;;5.00;5.00;;;;;28.32;33.71;101103.81;4992634;28;45767;-80
2022/07/14 11:18:21;;;;;;;;;3.75;3.75;;;;;28.37;33.62;101114.81;4992853;28;45764;-78
2022/07/14 11:20:55;;;;;;;;;5.25;5.00;;;;;28.44;33.36;101138.22;4992931;28;47812;-80
2022/07/14 11:23:24;;;;;;;;;5.00;5.00;;;;;28.46;32.87;101117.25;4976553;28;48318;-79
2022/07/14 11:25:52;;;;;;;;;4.25;4.00;;;;;28.49;33.27;101109.56;4992752;28;45719;-80
2022/07/14 11:28:29;;;;;;;;;7.75;6.00;;;;;28.56;32.91;101117.59;4992739;28;45528;-79
2022/07/14 11:31:11;;;;;;;;;4.00;4.00;;;;;28.55;32.76;101122.22;4992692;28;45591;-79
2022/07/14 11:36:17;;;;;;;;;5.75;5.75;;;;;28.59;32.76;101114.50;4992786;28;46521;-82
2022/07/14 11:36:28;;;;;;;;;4.75;4.75;;;;;28.55;32.99;101092.53;4992255;28;45618;-81
2022/07/14 11:39:14;;;;;;;;;4.25;4.25;;;;;28.65;32.00;101102.84;4992605;28;45841;-81
2022/07/14 11:41:43;;;;;;;;;4.00;4.00;;;;;28.69;31.90;101107.59;4991793;28;48021;-80
2022/07/14 11:44:40;;;;;;;;;4.00;4.00;;;;;28.72;31.92;101096.41;4993028;28;45643;-81